MOL Modern — V7VS6 — position and weather

sailwx.info

Track history (hours):
 
Tides and Currents Weather Stations Pressure Air Temp Water Temp Dewpoint Dewpoint Depression Visibility Wind Speed Wind Dir Waves Ship Positions

MOL Modern

Last reported at 2014-Aug-15 07:26 UTC. Time now 2014-Aug-21 10:14 UTC.
Position N 35°19' E 141°01'.

Length 302 m; draft 12.9 m.

Type: Ship (hazmat cat A). MMSI: 538004203.

Date/timePositionNaut miles runAvg speedWind from/ knotsBaromVisibWave heightAir tempDewpointWater temp
2014-Aug-15 07:26N 35°19' E 141°01'2021.5
2014-Aug-15 06:31N 35°09' E 140°41'2021.5
2014-Aug-15 05:33N 34°58' E 140°19'2020.1
2014-Aug-15 04:33N 34°47' E 139°58'1919.0
2014-Aug-15 03:33N 34°40' E 139°37'  
2014-Aug-12 12:31N 23°49' E 118°35'2120.7
2014-Aug-12 11:32N 23°38' E 118°16'1919.8
2014-Aug-12 10:33N 23°29' E 117°57'4418.5
2014-Aug-12 08:10N 23°06' E 117°17'1218.6
2014-Aug-12 07:33N 22°59' E 117°07'2119.1
2014-Aug-12 06:29N 22°48' E 116°48'15317.0
2014-Aug-11 21:30N 22°18' E 114°06'  
Track history (hours):
 
Tides and Currents Weather Stations Pressure Air Temp Water Temp Dewpoint Dewpoint Depression Visibility Wind Speed Wind Dir Waves Ship Positions

MOL Modern

Last reported at 2014-Aug-15 07:26 UTC. Time now 2014-Aug-21 10:14 UTC.
Position N 35°19' E 141°01'.

Length 302 m; draft 12.9 m.

Type: Ship (hazmat cat A). MMSI: 538004203.

Date/timePositionNaut miles runAvg speedWind from/ knotsBaromVisibWave heightAir tempDewpointWater temp
2014-Aug-15 07:26N 35°19' E 141°01'2021.5
2014-Aug-15 06:31N 35°09' E 140°41'2021.5
2014-Aug-15 05:33N 34°58' E 140°19'2020.1
2014-Aug-15 04:33N 34°47' E 139°58'1919.0
2014-Aug-15 03:33N 34°40' E 139°37'  
2014-Aug-12 12:31N 23°49' E 118°35'2120.7
2014-Aug-12 11:32N 23°38' E 118°16'1919.8
2014-Aug-12 10:33N 23°29' E 117°57'4418.5
2014-Aug-12 08:10N 23°06' E 117°17'1218.6
2014-Aug-12 07:33N 22°59' E 117°07'2119.1
2014-Aug-12 06:29N 22°48' E 116°48'15317.0
2014-Aug-11 21:30N 22°18' E 114°06'  

Dump ship's entire track history